sensor_id;sensor_type;location;lat;lon;timestamp;P1;durP1;ratioP1;P2;durP2;ratioP2
9783;SDS011;4931;44.874;-1.092;2022-08-03T00:00:59;4.55;;;2.60;;
9783;SDS011;4931;44.874;-1.092;2022-08-03T00:05:48;6.63;;;2.80;;
9783;SDS011;4931;44.874;-1.092;2022-08-03T00:10:45;5.10;;;2.42;;
9783;SDS011;4931;44.874;-1.092;2022-08-03T00:15:31;9.00;;;2.45;;
9783;SDS011;4931;44.874;-1.092;2022-08-03T00:20:17;4.72;;;2.60;;
9783;SDS011;4931;44.874;-1.092;2022-08-03T00:25:06;5.90;;;2.95;;
9783;SDS011;4931;44.874;-1.092;2022-08-03T00:29:52;8.48;;;2.53;;
9783;SDS011;4931;44.874;-1.092;2022-08-03T00:34:41;5.82;;;2.70;;
9783;SDS011;4931;44.874;-1.092;2022-08-03T00:39:39;4.47;;;2.78;;
9783;SDS011;4931;44.874;-1.092;2022-08-03T00:44:37;7.93;;;2.60;;
9783;SDS011;4931;44.874;-1.092;2022-08-03T00:49:24;4.75;;;2.88;;
9783;SDS011;4931;44.874;-1.092;2022-08-03T00:54:10;7.57;;;3.13;;
9783;SDS011;4931;44.874;-1.092;2022-08-03T00:58:57;6.90;;;2.75;;
9783;SDS011;4931;44.874;-1.092;2022-08-03T01:03:46;5.57;;;3.10;;
9783;SDS011;4931;44.874;-1.092;2022-08-03T01:08:37;5.65;;;2.83;;
9783;SDS011;4931;44.874;-1.092;2022-08-03T01:13:29;4.43;;;2.95;;
9783;SDS011;4931;44.874;-1.092;2022-08-03T01:18:49;12.50;;;3.40;;
9783;SDS011;4931;44.874;-1.092;2022-08-03T01:29:09;6.95;;;3.03;;
9783;SDS011;4931;44.874;-1.092;2022-08-03T01:34:11;7.20;;;3.22;;
9783;SDS011;4931;44.874;-1.092;2022-08-03T01:43:50;7.30;;;3.58;;
9783;SDS011;4931;44.874;-1.092;2022-08-03T01:48:58;9.00;;;3.63;;
9783;SDS011;4931;44.874;-1.092;2022-08-03T01:53:52;8.57;;;3.80;;
9783;SDS011;4931;44.874;-1.092;2022-08-03T01:58:39;6.10;;;3.85;;
9783;SDS011;4931;44.874;-1.092;2022-08-03T02:03:28;9.18;;;3.53;;
9783;SDS011;4931;44.874;-1.092;2022-08-03T02:08:16;7.40;;;3.83;;
9783;SDS011;4931;44.874;-1.092;2022-08-03T02:13:06;8.63;;;3.67;;
9783;SDS011;4931;44.874;-1.092;2022-08-03T02:17:53;6.90;;;3.50;;
9783;SDS011;4931;44.874;-1.092;2022-08-03T02:22:42;8.20;;;3.83;;
9783;SDS011;4931;44.874;-1.092;2022-08-03T02:27:29;8.10;;;3.35;;
9783;SDS011;4931;44.874;-1.092;2022-08-03T02:32:28;7.03;;;3.58;;
9783;SDS011;4931;44.874;-1.092;2022-08-03T02:37:16;6.07;;;3.22;;
9783;SDS011;4931;44.874;-1.092;2022-08-03T02:42:04;6.90;;;3.70;;
9783;SDS011;4931;44.874;-1.092;2022-08-03T02:46:56;5.13;;;3.72;;
9783;SDS011;4931;44.874;-1.092;2022-08-03T02:51:48;8.23;;;3.70;;
9783;SDS011;4931;44.874;-1.092;2022-08-03T02:56:37;8.70;;;3.40;;
9783;SDS011;4931;44.874;-1.092;2022-08-03T03:01:25;6.35;;;3.80;;
9783;SDS011;4931;44.874;-1.092;2022-08-03T03:06:13;5.18;;;3.55;;
9783;SDS011;4931;44.874;-1.092;2022-08-03T03:11:06;6.70;;;3.63;;
9783;SDS011;4931;44.874;-1.092;2022-08-03T03:15:53;6.90;;;3.80;;
9783;SDS011;4931;44.874;-1.092;2022-08-03T03:20:41;6.72;;;3.72;;
9783;SDS011;4931;44.874;-1.092;2022-08-03T03:25:30;6.53;;;3.50;;
9783;SDS011;4931;44.874;-1.092;2022-08-03T03:30:19;7.03;;;3.92;;
9783;SDS011;4931;44.874;-1.092;2022-08-03T03:35:06;6.53;;;4.00;;
9783;SDS011;4931;44.874;-1.092;2022-08-03T03:39:53;8.57;;;3.85;;
9783;SDS011;4931;44.874;-1.092;2022-08-03T03:44:40;11.77;;;4.97;;
9783;SDS011;4931;44.874;-1.092;2022-08-03T03:49:28;6.80;;;4.68;;
9783;SDS011;4931;44.874;-1.092;2022-08-03T03:54:16;6.97;;;4.20;;
9783;SDS011;4931;44.874;-1.092;2022-08-03T03:59:02;7.43;;;4.20;;
9783;SDS011;4931;44.874;-1.092;2022-08-03T04:03:48;6.93;;;3.95;;
9783;SDS011;4931;44.874;-1.092;2022-08-03T04:08:35;7.53;;;4.05;;
9783;SDS011;4931;44.874;-1.092;2022-08-03T04:13:34;6.85;;;4.40;;
9783;SDS011;4931;44.874;-1.092;2022-08-03T04:18:23;6.32;;;3.97;;
9783;SDS011;4931;44.874;-1.092;2022-08-03T04:23:11;9.50;;;4.85;;
9783;SDS011;4931;44.874;-1.092;2022-08-03T04:28:00;14.75;;;4.47;;
9783;SDS011;4931;44.874;-1.092;2022-08-03T04:33:06;6.40;;;3.80;;
9783;SDS011;4931;44.874;-1.092;2022-08-03T04:37:53;5.57;;;4.25;;
9783;SDS011;4931;44.874;-1.092;2022-08-03T04:42:43;5.35;;;3.72;;
9783;SDS011;4931;44.874;-1.092;2022-08-03T04:47:33;8.25;;;4.40;;
9783;SDS011;4931;44.874;-1.092;2022-08-03T04:52:20;5.35;;;4.10;;
9783;SDS011;4931;44.874;-1.092;2022-08-03T04:57:05;7.15;;;4.50;;
9783;SDS011;4931;44.874;-1.092;2022-08-03T05:02:03;10.65;;;4.25;;
9783;SDS011;4931;44.874;-1.092;2022-08-03T05:06:51;9.65;;;4.68;;
9783;SDS011;4931;44.874;-1.092;2022-08-03T05:11:39;5.45;;;4.20;;
9783;SDS011;4931;44.874;-1.092;2022-08-03T05:16:24;8.23;;;4.35;;
9783;SDS011;4931;44.874;-1.092;2022-08-03T05:21:09;9.32;;;4.15;;
9783;SDS011;4931;44.874;-1.092;2022-08-03T05:26:00;6.30;;;4.20;;
9783;SDS011;4931;44.874;-1.092;2022-08-03T05:30:45;7.90;;;3.90;;
9783;SDS011;4931;44.874;-1.092;2022-08-03T05:35:31;9.80;;;4.28;;
9783;SDS011;4931;44.874;-1.092;2022-08-03T05:40:37;9.32;;;4.05;;
9783;SDS011;4931;44.874;-1.092;2022-08-03T05:45:41;7.97;;;4.22;;
9783;SDS011;4931;44.874;-1.092;2022-08-03T05:50:42;7.40;;;4.50;;
9783;SDS011;4931;44.874;-1.092;2022-08-03T05:55:27;11.88;;;4.72;;
9783;SDS011;4931;44.874;-1.092;2022-08-03T06:00:13;11.82;;;4.97;;
9783;SDS011;4931;44.874;-1.092;2022-08-03T06:05:02;9.48;;;4.95;;
9783;SDS011;4931;44.874;-1.092;2022-08-03T06:09:47;11.23;;;4.78;;
9783;SDS011;4931;44.874;-1.092;2022-08-03T06:14:53;11.57;;;4.93;;
9783;SDS011;4931;44.874;-1.092;2022-08-03T06:19:38;12.10;;;5.00;;
9783;SDS011;4931;44.874;-1.092;2022-08-03T06:24:26;6.68;;;4.80;;
9783;SDS011;4931;44.874;-1.092;2022-08-03T06:29:11;9.30;;;5.18;;
9783;SDS011;4931;44.874;-1.092;2022-08-03T06:33:56;10.82;;;4.95;;
9783;SDS011;4931;44.874;-1.092;2022-08-03T06:39:02;9.82;;;4.85;;
9783;SDS011;4931;44.874;-1.092;2022-08-03T06:43:51;9.98;;;4.63;;
9783;SDS011;4931;44.874;-1.092;2022-08-03T06:48:45;9.15;;;4.75;;
9783;SDS011;4931;44.874;-1.092;2022-08-03T06:53:30;7.43;;;4.97;;
9783;SDS011;4931;44.874;-1.092;2022-08-03T06:58:15;10.55;;;4.75;;
9783;SDS011;4931;44.874;-1.092;2022-08-03T07:03:03;10.18;;;4.55;;
9783;SDS011;4931;44.874;-1.092;2022-08-03T07:07:49;11.00;;;4.97;;
9783;SDS011;4931;44.874;-1.092;2022-08-03T07:12:34;7.88;;;5.10;;
9783;SDS011;4931;44.874;-1.092;2022-08-03T07:17:37;12.38;;;5.05;;
9783;SDS011;4931;44.874;-1.092;2022-08-03T07:22:25;10.27;;;4.90;;
9783;SDS011;4931;44.874;-1.092;2022-08-03T07:27:10;15.02;;;4.78;;
9783;SDS011;4931;44.874;-1.092;2022-08-03T07:31:55;7.55;;;4.35;;
9783;SDS011;4931;44.874;-1.092;2022-08-03T07:36:41;8.15;;;4.85;;
9783;SDS011;4931;44.874;-1.092;2022-08-03T07:41:28;8.25;;;4.68;;
9783;SDS011;4931;44.874;-1.092;2022-08-03T07:46:14;9.25;;;4.72;;
9783;SDS011;4931;44.874;-1.092;2022-08-03T07:50:59;9.35;;;4.80;;
9783;SDS011;4931;44.874;-1.092;2022-08-03T07:55:46;6.18;;;4.40;;
9783;SDS011;4931;44.874;-1.092;2022-08-03T08:00:34;8.38;;;4.40;;
9783;SDS011;4931;44.874;-1.092;2022-08-03T08:05:20;8.95;;;4.38;;
9783;SDS011;4931;44.874;-1.092;2022-08-03T08:10:05;8.50;;;4.35;;
9783;SDS011;4931;44.874;-1.092;2022-08-03T08:14:53;5.45;;;4.55;;
9783;SDS011;4931;44.874;-1.092;2022-08-03T08:19:41;12.70;;;4.28;;
9783;SDS011;4931;44.874;-1.092;2022-08-03T08:24:32;6.25;;;4.47;;
9783;SDS011;4931;44.874;-1.092;2022-08-03T08:29:17;6.55;;;4.25;;
9783;SDS011;4931;44.874;-1.092;2022-08-03T08:34:04;9.43;;;4.50;;
9783;SDS011;4931;44.874;-1.092;2022-08-03T08:38:51;11.32;;;4.30;;
9783;SDS011;4931;44.874;-1.092;2022-08-03T08:43:37;5.97;;;4.25;;
9783;SDS011;4931;44.874;-1.092;2022-08-03T08:48:23;7.70;;;4.30;;
9783;SDS011;4931;44.874;-1.092;2022-08-03T08:53:09;8.90;;;4.53;;
9783;SDS011;4931;44.874;-1.092;2022-08-03T08:58:03;7.22;;;4.50;;
9783;SDS011;4931;44.874;-1.092;2022-08-03T09:02:50;7.07;;;4.45;;
9783;SDS011;4931;44.874;-1.092;2022-08-03T09:07:36;10.60;;;5.13;;
9783;SDS011;4931;44.874;-1.092;2022-08-03T09:12:21;5.90;;;4.25;;
9783;SDS011;4931;44.874;-1.092;2022-08-03T09:17:37;7.70;;;4.30;;
9783;SDS011;4931;44.874;-1.092;2022-08-03T09:22:29;9.60;;;4.70;;
9783;SDS011;4931;44.874;-1.092;2022-08-03T09:27:14;7.95;;;4.78;;
9783;SDS011;4931;44.874;-1.092;2022-08-03T09:32:00;6.55;;;4.18;;
9783;SDS011;4931;44.874;-1.092;2022-08-03T09:36:49;6.05;;;4.38;;
9783;SDS011;4931;44.874;-1.092;2022-08-03T09:41:37;6.67;;;4.30;;
9783;SDS011;4931;44.874;-1.092;2022-08-03T09:46:24;7.78;;;4.15;;
9783;SDS011;4931;44.874;-1.092;2022-08-03T09:51:13;5.30;;;3.60;;
9783;SDS011;4931;44.874;-1.092;2022-08-03T09:56:22;7.30;;;3.13;;
9783;SDS011;4931;44.874;-1.092;2022-08-03T10:01:22;4.90;;;2.72;;
9783;SDS011;4931;44.874;-1.092;2022-08-03T10:06:17;6.22;;;3.40;;
9783;SDS011;4931;44.874;-1.092;2022-08-03T10:11:09;7.13;;;3.80;;
9783;SDS011;4931;44.874;-1.092;2022-08-03T10:15:57;7.68;;;3.75;;
9783;SDS011;4931;44.874;-1.092;2022-08-03T10:21:06;10.52;;;3.65;;
9783;SDS011;4931;44.874;-1.092;2022-08-03T10:25:56;8.15;;;3.80;;
9783;SDS011;4931;44.874;-1.092;2022-08-03T10:30:47;8.15;;;3.42;;
9783;SDS011;4931;44.874;-1.092;2022-08-03T10:35:36;7.07;;;3.20;;
9783;SDS011;4931;44.874;-1.092;2022-08-03T10:40:26;6.03;;;3.10;;
9783;SDS011;4931;44.874;-1.092;2022-08-03T10:45:32;5.28;;;2.80;;
9783;SDS011;4931;44.874;-1.092;2022-08-03T10:50:21;5.07;;;2.80;;
9783;SDS011;4931;44.874;-1.092;2022-08-03T11:00:31;9.45;;;3.22;;
9783;SDS011;4931;44.874;-1.092;2022-08-03T11:05:34;7.28;;;3.70;;
9783;SDS011;4931;44.874;-1.092;2022-08-03T11:10:28;8.18;;;3.90;;
9783;SDS011;4931;44.874;-1.092;2022-08-03T11:15:17;5.65;;;3.55;;
9783;SDS011;4931;44.874;-1.092;2022-08-03T11:20:17;8.82;;;3.60;;
9783;SDS011;4931;44.874;-1.092;2022-08-03T11:25:37;8.70;;;3.10;;
9783;SDS011;4931;44.874;-1.092;2022-08-03T11:30:53;7.80;;;3.55;;
9783;SDS011;4931;44.874;-1.092;2022-08-03T11:35:55;8.02;;;3.40;;
9783;SDS011;4931;44.874;-1.092;2022-08-03T11:40:47;10.60;;;2.90;;
9783;SDS011;4931;44.874;-1.092;2022-08-03T11:45:34;6.15;;;2.97;;
9783;SDS011;4931;44.874;-1.092;2022-08-03T11:50:20;14.00;;;4.60;;
9783;SDS011;4931;44.874;-1.092;2022-08-03T11:55:13;9.55;;;3.50;;
9783;SDS011;4931;44.874;-1.092;2022-08-03T12:00:06;5.57;;;2.70;;
9783;SDS011;4931;44.874;-1.092;2022-08-03T12:05:13;6.93;;;2.25;;
9783;SDS011;4931;44.874;-1.092;2022-08-03T12:10:06;6.10;;;2.53;;
9783;SDS011;4931;44.874;-1.092;2022-08-03T12:14:53;3.65;;;2.13;;
9783;SDS011;4931;44.874;-1.092;2022-08-03T12:19:44;6.03;;;2.10;;
9783;SDS011;4931;44.874;-1.092;2022-08-03T12:24:38;3.80;;;1.98;;
9783;SDS011;4931;44.874;-1.092;2022-08-03T12:29:27;8.98;;;3.00;;
9783;SDS011;4931;44.874;-1.092;2022-08-03T12:34:13;5.05;;;2.10;;
9783;SDS011;4931;44.874;-1.092;2022-08-03T12:39:02;10.35;;;2.90;;
9783;SDS011;4931;44.874;-1.092;2022-08-03T12:43:49;11.80;;;4.10;;
9783;SDS011;4931;44.874;-1.092;2022-08-03T12:48:35;7.45;;;1.88;;
9783;SDS011;4931;44.874;-1.092;2022-08-03T12:53:27;4.63;;;1.75;;
9783;SDS011;4931;44.874;-1.092;2022-08-03T12:58:27;4.20;;;1.75;;
9783;SDS011;4931;44.874;-1.092;2022-08-03T13:03:15;4.75;;;1.88;;
9783;SDS011;4931;44.874;-1.092;2022-08-03T13:08:21;3.45;;;1.83;;
9783;SDS011;4931;44.874;-1.092;2022-08-03T13:13:08;8.90;;;2.17;;
9783;SDS011;4931;44.874;-1.092;2022-08-03T13:17:56;7.70;;;2.00;;
9783;SDS011;4931;44.874;-1.092;2022-08-03T13:22:45;7.88;;;2.30;;
9783;SDS011;4931;44.874;-1.092;2022-08-03T13:27:31;7.82;;;2.88;;
9783;SDS011;4931;44.874;-1.092;2022-08-03T13:32:36;5.57;;;2.17;;
9783;SDS011;4931;44.874;-1.092;2022-08-03T13:37:24;3.92;;;2.00;;
9783;SDS011;4931;44.874;-1.092;2022-08-03T13:42:10;3.85;;;2.10;;
9783;SDS011;4931;44.874;-1.092;2022-08-03T13:46:55;4.13;;;2.00;;
9783;SDS011;4931;44.874;-1.092;2022-08-03T13:51:41;4.38;;;1.65;;
9783;SDS011;4931;44.874;-1.092;2022-08-03T13:56:29;4.38;;;2.20;;
9783;SDS011;4931;44.874;-1.092;2022-08-03T14:01:15;3.50;;;1.70;;
9783;SDS011;4931;44.874;-1.092;2022-08-03T14:06:21;2.55;;;1.60;;
9783;SDS011;4931;44.874;-1.092;2022-08-03T14:11:06;4.25;;;1.83;;
9783;SDS011;4931;44.874;-1.092;2022-08-03T14:15:54;5.90;;;1.70;;
9783;SDS011;4931;44.874;-1.092;2022-08-03T14:20:39;4.97;;;1.80;;
9783;SDS011;4931;44.874;-1.092;2022-08-03T14:25:35;4.72;;;2.25;;
9783;SDS011;4931;44.874;-1.092;2022-08-03T14:30:31;8.50;;;2.22;;
9783;SDS011;4931;44.874;-1.092;2022-08-03T14:35:18;3.85;;;1.95;;
9783;SDS011;4931;44.874;-1.092;2022-08-03T14:40:04;5.40;;;2.22;;
9783;SDS011;4931;44.874;-1.092;2022-08-03T14:44:51;6.72;;;2.45;;
9783;SDS011;4931;44.874;-1.092;2022-08-03T14:49:44;3.78;;;2.05;;
9783;SDS011;4931;44.874;-1.092;2022-08-03T14:54:52;6.00;;;2.10;;
9783;SDS011;4931;44.874;-1.092;2022-08-03T14:59:37;4.57;;;2.50;;
9783;SDS011;4931;44.874;-1.092;2022-08-03T15:04:37;2.83;;;2.20;;
9783;SDS011;4931;44.874;-1.092;2022-08-03T15:09:23;5.57;;;2.60;;
9783;SDS011;4931;44.874;-1.092;2022-08-03T15:14:11;9.50;;;2.90;;
9783;SDS011;4931;44.874;-1.092;2022-08-03T15:18:56;4.30;;;2.30;;
9783;SDS011;4931;44.874;-1.092;2022-08-03T15:23:41;5.53;;;2.40;;
9783;SDS011;4931;44.874;-1.092;2022-08-03T15:28:27;12.82;;;2.88;;
9783;SDS011;4931;44.874;-1.092;2022-08-03T15:33:15;4.53;;;3.03;;
9783;SDS011;4931;44.874;-1.092;2022-08-03T15:38:00;5.88;;;2.95;;
9783;SDS011;4931;44.874;-1.092;2022-08-03T15:47:35;5.28;;;2.00;;
9783;SDS011;4931;44.874;-1.092;2022-08-03T15:52:23;5.10;;;2.22;;
9783;SDS011;4931;44.874;-1.092;2022-08-03T15:57:08;4.57;;;2.30;;
9783;SDS011;4931;44.874;-1.092;2022-08-03T16:01:55;8.27;;;2.63;;
9783;SDS011;4931;44.874;-1.092;2022-08-03T16:06:40;5.97;;;2.58;;
9783;SDS011;4931;44.874;-1.092;2022-08-03T16:11:29;6.78;;;2.70;;
9783;SDS011;4931;44.874;-1.092;2022-08-03T16:16:14;8.77;;;4.25;;
9783;SDS011;4931;44.874;-1.092;2022-08-03T16:20:59;8.52;;;3.55;;
9783;SDS011;4931;44.874;-1.092;2022-08-03T16:25:44;8.75;;;3.13;;
9783;SDS011;4931;44.874;-1.092;2022-08-03T16:30:32;7.15;;;2.78;;
9783;SDS011;4931;44.874;-1.092;2022-08-03T16:35:18;8.20;;;3.65;;
9783;SDS011;4931;44.874;-1.092;2022-08-03T16:40:06;4.72;;;3.05;;
9783;SDS011;4931;44.874;-1.092;2022-08-03T16:44:59;6.22;;;3.40;;
9783;SDS011;4931;44.874;-1.092;2022-08-03T16:49:48;8.18;;;3.63;;
9783;SDS011;4931;44.874;-1.092;2022-08-03T16:54:37;17.92;;;4.50;;
9783;SDS011;4931;44.874;-1.092;2022-08-03T16:59:22;11.52;;;7.15;;
9783;SDS011;4931;44.874;-1.092;2022-08-03T17:04:17;12.27;;;3.13;;
9783;SDS011;4931;44.874;-1.092;2022-08-03T17:09:08;8.02;;;3.00;;
9783;SDS011;4931;44.874;-1.092;2022-08-03T17:13:57;8.52;;;2.83;;
9783;SDS011;4931;44.874;-1.092;2022-08-03T17:18:50;5.38;;;2.75;;
9783;SDS011;4931;44.874;-1.092;2022-08-03T17:23:43;8.82;;;3.13;;
9783;SDS011;4931;44.874;-1.092;2022-08-03T17:28:46;4.93;;;2.42;;
9783;SDS011;4931;44.874;-1.092;2022-08-03T17:38:24;4.00;;;2.50;;
9783;SDS011;4931;44.874;-1.092;2022-08-03T17:43:17;4.78;;;2.38;;
9783;SDS011;4931;44.874;-1.092;2022-08-03T17:48:25;6.55;;;2.60;;
9783;SDS011;4931;44.874;-1.092;2022-08-03T17:53:14;4.68;;;2.22;;
9783;SDS011;4931;44.874;-1.092;2022-08-03T17:58:06;6.03;;;2.53;;
9783;SDS011;4931;44.874;-1.092;2022-08-03T18:03:00;4.05;;;2.10;;
9783;SDS011;4931;44.874;-1.092;2022-08-03T18:08:04;5.35;;;1.80;;
9783;SDS011;4931;44.874;-1.092;2022-08-03T18:12:52;6.43;;;2.50;;
9783;SDS011;4931;44.874;-1.092;2022-08-03T18:17:52;4.70;;;1.70;;
9783;SDS011;4931;44.874;-1.092;2022-08-03T18:22:43;3.95;;;1.88;;
9783;SDS011;4931;44.874;-1.092;2022-08-03T18:27:31;3.83;;;1.92;;
9783;SDS011;4931;44.874;-1.092;2022-08-03T18:32:26;4.32;;;1.60;;
9783;SDS011;4931;44.874;-1.092;2022-08-03T18:37:13;4.22;;;1.80;;
9783;SDS011;4931;44.874;-1.092;2022-08-03T18:42:06;4.03;;;2.05;;
9783;SDS011;4931;44.874;-1.092;2022-08-03T18:47:11;3.70;;;1.70;;
9783;SDS011;4931;44.874;-1.092;2022-08-03T18:52:10;2.97;;;1.70;;
9783;SDS011;4931;44.874;-1.092;2022-08-03T18:57:01;3.67;;;1.50;;
9783;SDS011;4931;44.874;-1.092;2022-08-03T19:01:49;2.22;;;1.73;;
9783;SDS011;4931;44.874;-1.092;2022-08-03T19:06:44;4.40;;;1.65;;
9783;SDS011;4931;44.874;-1.092;2022-08-03T19:11:35;5.07;;;2.13;;
9783;SDS011;4931;44.874;-1.092;2022-08-03T19:16:44;3.50;;;1.63;;
9783;SDS011;4931;44.874;-1.092;2022-08-03T19:21:32;5.72;;;2.00;;
9783;SDS011;4931;44.874;-1.092;2022-08-03T19:26:22;5.07;;;2.08;;
9783;SDS011;4931;44.874;-1.092;2022-08-03T19:31:11;4.93;;;2.15;;
9783;SDS011;4931;44.874;-1.092;2022-08-03T19:36:01;4.15;;;1.98;;
9783;SDS011;4931;44.874;-1.092;2022-08-03T19:41:07;10.05;;;2.17;;
9783;SDS011;4931;44.874;-1.092;2022-08-03T19:45:59;8.55;;;1.92;;
9783;SDS011;4931;44.874;-1.092;2022-08-03T19:50:49;6.32;;;2.10;;
9783;SDS011;4931;44.874;-1.092;2022-08-03T19:55:40;4.03;;;2.05;;
9783;SDS011;4931;44.874;-1.092;2022-08-03T20:00:30;6.63;;;2.45;;
9783;SDS011;4931;44.874;-1.092;2022-08-03T20:05:21;6.93;;;2.40;;
9783;SDS011;4931;44.874;-1.092;2022-08-03T20:10:07;5.15;;;2.28;;
9783;SDS011;4931;44.874;-1.092;2022-08-03T20:14:52;7.72;;;2.67;;
9783;SDS011;4931;44.874;-1.092;2022-08-03T20:19:38;8.43;;;2.72;;
9783;SDS011;4931;44.874;-1.092;2022-08-03T20:24:30;9.38;;;3.03;;
9783;SDS011;4931;44.874;-1.092;2022-08-03T20:29:19;15.30;;;3.65;;
9783;SDS011;4931;44.874;-1.092;2022-08-03T20:34:23;12.77;;;2.60;;
9783;SDS011;4931;44.874;-1.092;2022-08-03T20:39:08;8.88;;;2.88;;
9783;SDS011;4931;44.874;-1.092;2022-08-03T20:43:56;11.30;;;2.70;;
9783;SDS011;4931;44.874;-1.092;2022-08-03T20:48:42;7.70;;;2.95;;
9783;SDS011;4931;44.874;-1.092;2022-08-03T20:53:29;8.68;;;2.83;;
9783;SDS011;4931;44.874;-1.092;2022-08-03T20:58:35;14.15;;;2.70;;
9783;SDS011;4931;44.874;-1.092;2022-08-03T21:03:24;7.80;;;2.47;;
9783;SDS011;4931;44.874;-1.092;2022-08-03T21:08:30;7.05;;;2.55;;
9783;SDS011;4931;44.874;-1.092;2022-08-03T21:13:29;11.27;;;2.50;;
9783;SDS011;4931;44.874;-1.092;2022-08-03T21:18:21;10.48;;;2.22;;
9783;SDS011;4931;44.874;-1.092;2022-08-03T21:23:12;12.30;;;2.37;;
9783;SDS011;4931;44.874;-1.092;2022-08-03T21:28:18;9.07;;;3.20;;
9783;SDS011;4931;44.874;-1.092;2022-08-03T21:33:08;7.22;;;2.55;;
9783;SDS011;4931;44.874;-1.092;2022-08-03T21:37:56;10.13;;;2.20;;
9783;SDS011;4931;44.874;-1.092;2022-08-03T21:42:53;9.13;;;2.60;;
9783;SDS011;4931;44.874;-1.092;2022-08-03T21:47:40;6.90;;;2.60;;
9783;SDS011;4931;44.874;-1.092;2022-08-03T21:52:25;6.82;;;2.42;;
9783;SDS011;4931;44.874;-1.092;2022-08-03T21:57:16;9.15;;;2.70;;
9783;SDS011;4931;44.874;-1.092;2022-08-03T22:02:03;10.75;;;2.35;;
9783;SDS011;4931;44.874;-1.092;2022-08-03T22:07:05;8.35;;;2.45;;
9783;SDS011;4931;44.874;-1.092;2022-08-03T22:11:51;7.10;;;2.58;;
9783;SDS011;4931;44.874;-1.092;2022-08-03T22:16:41;8.30;;;2.25;;
9783;SDS011;4931;44.874;-1.092;2022-08-03T22:21:27;9.75;;;2.53;;
9783;SDS011;4931;44.874;-1.092;2022-08-03T22:26:19;10.18;;;2.67;;
9783;SDS011;4931;44.874;-1.092;2022-08-03T22:31:16;5.32;;;2.45;;
9783;SDS011;4931;44.874;-1.092;2022-08-03T22:36:24;10.50;;;2.45;;
9783;SDS011;4931;44.874;-1.092;2022-08-03T22:41:11;9.15;;;2.58;;
9783;SDS011;4931;44.874;-1.092;2022-08-03T22:45:58;9.63;;;2.80;;
9783;SDS011;4931;44.874;-1.092;2022-08-03T22:50:53;11.25;;;2.63;;
9783;SDS011;4931;44.874;-1.092;2022-08-03T22:55:42;7.55;;;2.78;;
9783;SDS011;4931;44.874;-1.092;2022-08-03T23:00:28;13.75;;;3.20;;
9783;SDS011;4931;44.874;-1.092;2022-08-03T23:05:15;15.40;;;3.13;;
9783;SDS011;4931;44.874;-1.092;2022-08-03T23:10:24;9.32;;;2.53;;
9783;SDS011;4931;44.874;-1.092;2022-08-03T23:15:12;8.10;;;2.50;;
9783;SDS011;4931;44.874;-1.092;2022-08-03T23:19:58;9.73;;;2.80;;
9783;SDS011;4931;44.874;-1.092;2022-08-03T23:24:46;13.65;;;3.15;;
9783;SDS011;4931;44.874;-1.092;2022-08-03T23:29:32;8.63;;;2.97;;
9783;SDS011;4931;44.874;-1.092;2022-08-03T23:34:21;10.90;;;2.40;;
9783;SDS011;4931;44.874;-1.092;2022-08-03T23:39:19;11.70;;;2.80;;
9783;SDS011;4931;44.874;-1.092;2022-08-03T23:44:12;10.40;;;2.65;;
9783;SDS011;4931;44.874;-1.092;2022-08-03T23:48:59;9.20;;;2.45;;
9783;SDS011;4931;44.874;-1.092;2022-08-03T23:53:49;8.13;;;2.25;;
9783;SDS011;4931;44.874;-1.092;2022-08-03T23:58:46;14.20;;;2.65;;
